Time;durP1;ratioP1;P1;durP2;ratioP2;P2;SDS_P1;SDS_P2;PMS_P1;PMS_P2;Temp;Humidity;BMP_temperature;BMP_pressure;BME280_temperature;BME280_humidity;BME280_pressure;Samples;Min_cycle;Max_cycle;Signal;HPM_P1;HPM_P2
2021/12/13 00:02:36;;;;;;;154.32;18.00;;;4.70;99.90;;;3.53;100.00;98650.47;5001419;28;20121;-69
2021/12/13 00:05:09;;;;;;;371.42;30.65;;;4.80;99.90;;;3.62;100.00;98649.66;5002131;28;20125;-68
2021/12/13 00:07:42;;;;;;;374.10;29.42;;;4.70;99.90;;;3.57;100.00;98651.34;5005630;28;20089;-69
2021/12/13 00:10:17;;;;;;;501.10;38.28;;;4.70;99.90;;;3.65;100.00;98646.22;5005403;28;20610;-69
2021/12/13 00:12:57;;;;;;;204.50;22.23;;;4.80;99.90;;;3.66;100.00;98646.25;5005632;28;20124;-69
2021/12/13 00:15:32;;;;;;;260.50;24.00;;;4.80;99.90;;;3.71;100.00;98648.81;5006973;28;20069;-69
2021/12/13 00:18:07;;;;;;;374.23;31.40;;;4.70;99.90;;;3.66;100.00;98646.25;5007509;28;20514;-68
2021/12/13 00:20:44;;;;;;;376.92;32.58;;;4.70;99.90;;;3.63;100.00;98648.81;5005683;28;20048;-68
2021/12/13 00:23:25;;;;;;;408.38;29.08;;;4.70;99.90;;;3.65;100.00;98639.41;5019373;28;20130;-68
2021/12/13 00:25:59;;;;;;;128.70;19.15;;;4.80;99.90;;;3.71;100.00;98652.22;5004984;28;20137;-67
2021/12/13 00:28:32;;;;;;;99.43;16.60;;;4.80;99.90;;;3.79;100.00;98642.00;5021614;28;20129;-69
2021/12/13 00:31:25;;;;;;;182.88;20.67;;;4.80;99.90;;;3.78;100.00;98640.25;5023112;28;20081;-68
2021/12/13 00:34:31;;;;;;;129.52;16.10;;;4.80;99.90;;;3.85;100.00;98641.97;5004960;28;20056;-67
2021/12/13 00:37:23;;;;;;;111.50;18.10;;;4.80;99.90;;;3.86;100.00;98648.84;5007233;28;20133;-68
2021/12/13 00:39:56;;;;;;;114.05;15.18;;;4.80;99.90;;;3.88;100.00;98644.56;5007015;28;20081;-68
2021/12/13 00:42:29;;;;;;;317.40;26.00;;;4.70;99.90;;;3.78;100.00;98651.38;5007548;28;20136;-68
2021/12/13 00:45:02;;;;;;;158.57;17.67;;;4.80;99.90;;;3.84;100.00;98642.84;5006882;28;20084;-69
2021/12/13 00:47:32;;;;;;;180.60;20.20;;;4.80;99.90;;;3.91;100.00;98641.16;5006284;28;20046;-67
2021/12/13 00:50:29;;;;;;;166.25;19.73;;;4.80;99.90;;;3.79;100.00;98639.44;5008559;28;20064;-69
2021/12/13 00:52:57;;;;;;;188.43;18.15;;;4.90;99.90;;;3.90;100.00;98637.72;5004005;28;20146;-69
2021/12/13 00:55:29;;;;;;;288.17;21.70;;;4.90;99.90;;;3.78;100.00;98646.25;5004554;28;20514;-68
2021/12/13 00:58:14;;;;;;;127.63;16.67;;;4.80;99.90;;;3.95;100.00;98642.88;5006453;28;20084;-69
2021/12/13 01:01:09;;;;;;;124.68;16.15;;;4.90;99.90;;;3.93;100.00;98642.00;5004248;28;20050;-68
2021/12/13 01:03:49;;;;;;;132.50;18.20;;;4.80;99.90;;;4.08;100.00;98641.16;5005438;28;20518;-68
2021/12/13 01:07:12;;;;;;;129.63;16.70;;;4.90;99.90;;;3.86;100.00;98638.56;5012230;28;20208;-68
2021/12/13 01:10:27;;;;;;;201.97;22.47;;;4.90;99.90;;;3.82;100.00;98648.84;5007116;28;20129;-68
2021/12/13 01:12:58;;;;;;;180.35;17.65;;;4.80;99.90;;;3.80;100.00;98655.69;5008873;28;20092;-68
2021/12/13 01:15:42;;;;;;;213.35;23.50;;;4.80;99.90;;;3.86;100.00;98656.56;5010120;28;20056;-68
2021/12/13 01:18:28;;;;;;;350.83;28.88;;;4.90;99.90;;;3.74;100.00;98667.66;5004220;28;20128;-68
2021/12/13 01:23:41;;;;;;;143.45;18.40;;;4.90;99.90;;;3.90;100.00;98665.97;5008560;28;20502;-68
2021/12/13 01:26:28;;;;;;;74.45;13.98;;;4.90;99.90;;;4.04;100.00;98678.84;5008204;28;20130;-67
2021/12/13 01:29:06;;;;;;;84.10;14.93;;;4.90;99.90;;;4.04;100.00;98671.13;5010185;28;20434;-69
2021/12/13 01:31:45;;;;;;;235.90;18.88;;;5.00;99.90;;;4.13;100.00;98675.44;5006664;28;20568;-69
2021/12/13 01:34:13;;;;;;;158.00;20.10;;;5.00;99.90;;;4.06;100.00;98679.72;5009961;28;20133;-70
2021/12/13 01:36:57;;;;;;;123.00;16.75;;;5.00;99.90;;;3.97;100.00;98677.13;5006094;28;20084;-69
2021/12/13 01:39:28;;;;;;;273.08;21.90;;;5.00;99.90;;;3.94;100.00;98677.09;5008203;28;20525;-68
2021/12/13 01:42:05;;;;;;;239.68;21.85;;;5.00;99.90;;;3.89;100.00;98679.66;5007262;28;20043;-69
2021/12/13 01:44:40;;;;;;;136.30;16.23;;;5.00;99.90;;;4.02;100.00;98688.25;5014737;28;20145;-69
2021/12/13 01:47:14;;;;;;;158.23;16.98;;;5.00;99.90;;;3.96;100.00;98698.50;5014762;28;20095;-68
2021/12/13 01:49:52;;;;;;;86.68;14.10;;;5.00;99.90;;;4.12;100.00;98697.69;5008398;28;20050;-67
2021/12/13 01:52:30;;;;;;;95.63;16.38;;;5.00;99.90;;;4.10;100.00;98698.53;4993505;28;20125;-68
2021/12/13 01:55:05;;;;;;;138.93;14.35;;;5.00;99.90;;;3.81;100.00;98695.91;5010188;28;20049;-68
2021/12/13 01:57:49;;;;;;;67.68;12.70;;;5.00;99.90;;;3.96;100.00;98699.38;5001766;28;20077;-69
2021/12/13 02:00:33;;;;;;;181.30;19.08;;;5.00;99.90;;;3.84;100.00;98701.91;5020428;28;20129;-69
2021/12/13 02:03:01;;;;;;;86.25;15.65;;;4.90;99.90;;;3.89;100.00;98702.78;5011581;28;20050;-69
2021/12/13 02:05:32;;;;;;;167.45;16.85;;;4.90;99.90;;;3.76;100.00;98704.47;5011324;28;20137;-69
2021/12/13 02:08:17;;;;;;;183.48;19.70;;;4.90;99.90;;;3.87;100.00;98701.91;5014006;28;20115;-68
2021/12/13 02:10:54;;;;;;;152.98;17.73;;;4.90;99.90;;;3.98;100.00;98705.38;5030296;28;20130;-69
2021/12/13 02:13:37;;;;;;;102.25;14.43;;;4.90;99.90;;;4.09;100.00;98697.69;5010942;28;20433;-69
2021/12/13 02:18:58;;;;;;;25.17;9.95;;;5.00;99.90;;;4.08;100.00;98692.53;5010179;28;20046;-69
2021/12/13 02:21:34;;;;;;;31.00;10.20;;;5.00;99.90;;;4.16;100.00;98696.84;5033999;28;20128;-69
2021/12/13 02:24:12;;;;;;;57.42;13.48;;;5.00;99.90;;;4.08;100.00;98706.25;5010554;28;20148;-69
2021/12/13 02:26:45;;;;;;;26.45;9.65;;;5.00;99.90;;;4.13;100.00;98696.00;5026307;28;20699;-69
2021/12/13 02:29:30;;;;;;;29.83;9.88;;;5.00;99.90;;;4.30;100.00;98699.41;5013204;28;20518;-68
2021/12/13 02:32:00;;;;;;;24.92;8.18;;;5.10;99.90;;;4.31;100.00;98695.13;5016065;28;20074;-69
2021/12/13 02:34:30;;;;;;;16.75;8.07;;;5.10;99.90;;;4.32;100.00;98690.00;5009913;28;20505;-69
2021/12/13 02:36:57;;;;;;;18.48;8.43;;;5.10;99.90;;;4.20;100.00;98687.44;4990320;28;20183;-68
2021/12/13 02:39:35;;;;;;;24.83;9.57;;;5.10;99.90;;;4.15;100.00;98683.97;5012587;28;20116;-68
2021/12/13 02:42:06;;;;;;;22.38;8.27;;;5.10;99.90;;;4.22;100.00;98688.28;5016445;28;20435;-68
2021/12/13 02:44:44;;;;;;;36.67;10.73;;;5.00;99.90;;;4.21;100.00;98686.56;5014516;28;20050;-68
2021/12/13 02:47:39;;;;;;;21.23;8.75;;;5.00;99.90;;;4.21;100.00;98690.84;5010392;28;20132;-68
2021/12/13 02:50:14;;;;;;;38.40;12.00;;;5.00;99.90;;;3.92;100.00;98689.97;5001059;28;20188;-68
2021/12/13 02:52:45;;;;;;;16.52;7.18;;;5.00;99.90;;;4.28;100.00;98685.69;5001850;28;20141;-69
2021/12/13 02:55:23;;;;;;;11.98;6.57;;;5.10;99.90;;;4.19;100.00;98683.13;5017536;28;20212;-68
2021/12/13 02:57:53;;;;;;;19.10;7.97;;;5.00;99.90;;;4.27;100.00;98676.28;5010014;28;20046;-68
2021/12/13 03:00:57;;;;;;;11.95;6.53;;;5.00;99.90;;;4.12;100.00;98681.41;5014735;28;20077;-67
2021/12/13 03:03:29;;;;;;;16.67;7.15;;;5.00;99.90;;;4.13;100.00;98675.44;4999470;28;20133;-69
2021/12/13 03:06:02;;;;;;;13.88;6.63;;;5.00;99.90;;;4.17;100.00;98674.56;4995322;28;20184;-69
2021/12/13 03:08:40;;;;;;;20.45;7.53;;;5.10;99.90;;;4.03;100.00;98671.97;4993159;28;20049;-69
2021/12/13 03:11:25;;;;;;;17.77;7.38;;;5.00;99.90;;;4.11;100.00;98678.00;5001401;28;20049;-69
2021/12/13 03:13:57;;;;;;;15.65;7.28;;;5.00;99.90;;;4.11;100.00;98670.28;5018634;28;20129;-68
2021/12/13 03:16:31;;;;;;;9.65;4.72;;;5.00;99.90;;;4.19;100.00;98667.72;5008562;28;20112;-69
2021/12/13 03:19:08;;;;;;;17.52;6.47;;;5.00;99.90;;;4.08;100.00;98670.28;5007174;28;20065;-68
2021/12/13 03:22:51;;;;;;;17.33;6.10;;;5.00;99.90;;;3.95;100.00;98671.13;5004044;28;20121;-68
2021/12/13 03:25:40;;;;;;;14.65;6.18;;;4.90;99.90;;;4.12;100.00;98674.56;4937386;28;20130;-69
2021/12/13 03:28:49;;;;;;;10.18;5.40;;;4.90;99.90;;;4.00;100.00;98671.97;4938025;28;20569;-68
2021/12/13 03:31:24;;;;;;;15.52;6.53;;;4.90;99.90;;;3.82;100.00;98671.97;5007084;28;20115;-69
2021/12/13 03:33:51;;;;;;;17.65;6.68;;;4.80;99.90;;;3.95;100.00;98666.84;5007724;28;20064;-67
2021/12/13 03:36:50;;;;;;;22.23;7.72;;;4.80;99.90;;;3.99;100.00;98675.38;5010350;28;20215;-69
2021/12/13 03:39:29;;;;;;;16.38;6.75;;;4.70;99.90;;;4.02;100.00;98670.28;5010303;28;20054;-67
2021/12/13 03:42:01;;;;;;;15.10;6.55;;;4.80;99.90;;;4.04;100.00;98673.72;4991624;28;20745;-68
2021/12/13 03:44:35;;;;;;;15.70;6.43;;;4.80;99.90;;;4.01;100.00;98671.13;5012645;28;20049;-69
2021/12/13 03:47:14;;;;;;;11.32;5.72;;;4.80;99.90;;;3.91;100.00;98680.53;5007217;28;20054;-69
2021/12/13 03:49:53;;;;;;;10.27;5.38;;;4.80;99.90;;;3.88;100.00;98671.97;5009977;28;20046;-68
2021/12/13 03:52:25;;;;;;;10.68;5.63;;;4.80;99.90;;;3.89;100.00;98676.25;5015607;28;20137;-69
2021/12/13 03:54:59;;;;;;;12.45;5.65;;;4.80;99.90;;;4.05;100.00;98664.28;5009305;28;20192;-68
2021/12/13 03:57:27;;;;;;;17.33;6.68;;;4.80;99.90;;;3.85;100.00;98656.53;5005039;28;20121;-69
2021/12/13 03:59:54;;;;;;;20.17;10.30;;;4.80;99.90;;;3.88;100.00;98659.97;5008027;28;20133;-68
2021/12/13 04:02:35;;;;;;;16.05;6.10;;;4.80;99.90;;;3.92;100.00;98663.41;5003955;28;20425;-68
2021/12/13 04:05:12;;;;;;;12.77;6.22;;;4.80;99.90;;;4.00;100.00;98659.13;5007912;28;20077;-70
2021/12/13 04:07:46;;;;;;;15.07;6.22;;;4.80;99.90;;;4.02;100.00;98664.28;5010406;28;20144;-69
2021/12/13 04:10:20;;;;;;;33.78;9.57;;;4.80;99.90;;;3.88;100.00;98659.97;5005510;28;20088;-68
2021/12/13 04:12:52;;;;;;;38.28;8.43;;;4.80;99.90;;;3.83;100.00;98654.00;5007567;28;20466;-68
2021/12/13 04:15:47;;;;;;;48.50;8.27;;;4.80;99.90;;;3.87;100.00;98654.84;5006120;28;20077;-69
2021/12/13 04:18:29;;;;;;;20.75;7.85;;;4.70;99.90;;;3.87;100.00;98647.97;5003842;28;20057;-68
2021/12/13 04:21:05;;;;;;;46.90;8.15;;;4.70;99.90;;;3.86;100.00;98655.72;5012312;28;20050;-69
2021/12/13 04:23:34;;;;;;;81.95;9.95;;;4.70;99.90;;;3.89;100.00;98658.25;5010613;28;20400;-68
2021/12/13 04:26:05;;;;;;;372.58;24.83;;;4.70;99.90;;;3.72;100.00;98669.38;4997463;28;20330;-68
2021/12/13 04:28:48;;;;;;;121.13;10.65;;;4.70;99.90;;;3.84;100.00;98675.38;5010461;28;20080;-69
2021/12/13 04:31:21;;;;;;;198.63;12.25;;;4.70;99.90;;;3.72;100.00;98673.66;5010496;28;20128;-69
2021/12/13 04:33:57;;;;;;;86.53;10.07;;;4.70;99.90;;;3.91;100.00;98659.97;5010071;28;20072;-68
2021/12/13 04:36:31;;;;;;;65.28;9.93;;;4.80;99.90;;;3.92;100.00;98666.84;5007079;28;20465;-68
2021/12/13 04:39:13;;;;;;;88.32;10.55;;;4.80;99.90;;;3.91;100.00;98667.69;5008075;28;20073;-68
2021/12/13 04:41:51;;;;;;;45.87;8.03;;;4.80;99.90;;;4.03;100.00;98661.69;5005778;28;20538;-69
2021/12/13 04:44:39;;;;;;;121.25;11.68;;;4.90;99.90;;;3.94;100.00;98665.09;5009684;28;20148;-68
2021/12/13 04:47:11;;;;;;;45.08;7.57;;;4.80;99.90;;;3.82;100.00;98662.53;5007081;28;20439;-69
2021/12/13 04:49:43;;;;;;;;;;;4.90;99.90;;;3.71;100.00;98665.06;5012707;28;20088;-69
2021/12/13 04:52:16;;;;;;;92.72;8.15;;;4.80;99.90;;;3.63;100.00;98668.50;5011278;28;20091;-68
2021/12/13 04:54:51;;;;;;;54.85;6.65;;;4.70;99.90;;;3.83;100.00;98669.41;5011584;28;20062;-68
2021/12/13 04:57:19;;;;;;;47.30;7.47;;;4.70;99.90;;;3.78;100.00;98671.94;5016761;28;20100;-68
2021/12/13 04:59:57;;;;;;;48.35;6.43;;;4.70;99.90;;;3.70;100.00;98675.34;5022885;28;20442;-68
2021/12/13 05:02:26;;;;;;;103.15;10.70;;;4.70;99.90;;;3.56;100.00;98675.31;5006246;28;20053;-69
2021/12/13 05:05:00;;;;;;;97.30;8.52;;;4.70;99.90;;;3.65;100.00;98675.34;5004676;28;20052;-68
2021/12/13 05:07:30;;;;;;;93.10;9.60;;;4.60;99.90;;;3.70;100.00;98678.78;5028602;28;20129;-69
2021/12/13 05:09:58;;;;;;;309.23;20.30;;;4.60;99.90;;;3.61;100.00;98677.91;5011973;28;20405;-69
2021/12/13 05:12:28;;;;;;;86.68;9.52;;;4.70;99.90;;;3.73;100.00;98685.63;5013217;28;20069;-69
2021/12/13 05:15:11;;;;;;;170.98;11.25;;;4.70;99.90;;;3.70;100.00;98688.19;5011790;28;20074;-69
2021/12/13 05:17:45;;;;;;;260.55;17.45;;;4.60;99.90;;;3.62;100.00;98689.88;5012778;28;20042;-68
2021/12/13 05:20:31;;;;;;;67.63;8.07;;;4.60;99.90;;;3.75;100.00;98686.50;5022019;28;20146;-69
2021/12/13 05:23:11;;;;;;;174.95;14.07;;;4.60;99.90;;;3.64;100.00;98691.59;4996985;28;20073;-68
2021/12/13 05:25:54;;;;;;;63.63;8.18;;;4.60;99.90;;;3.70;100.00;98694.19;4998654;28;20073;-69
2021/12/13 05:28:44;;;;;;;47.72;7.75;;;4.60;99.90;;;3.81;100.00;98693.34;5007702;28;20232;-69
2021/12/13 05:31:20;;;;;;;18.95;5.40;;;4.70;99.90;;;3.96;100.00;98698.50;5013764;28;20060;-68
2021/12/13 05:33:54;;;;;;;22.27;6.88;;;4.70;99.90;;;3.85;100.00;98705.34;5010181;28;20084;-69
2021/12/13 05:36:27;;;;;;;39.28;7.80;;;4.70;99.90;;;3.85;100.00;98697.63;5017103;28;20296;-69
2021/12/13 05:39:23;;;;;;;67.85;7.55;;;4.70;99.90;;;3.72;100.00;98705.31;5016750;28;20146;-68
2021/12/13 05:41:58;;;;;;;143.60;11.32;;;4.70;99.90;;;3.71;100.00;98698.44;5004816;28;20069;-68
2021/12/13 05:44:32;;;;;;;131.85;11.50;;;4.60;99.90;;;3.80;100.00;98699.34;5015535;28;20124;-69
2021/12/13 05:47:04;;;;;;;83.97;8.77;;;4.70;99.90;;;3.83;100.00;98701.91;5018188;28;20255;-69
2021/12/13 05:49:41;;;;;;;190.07;14.73;;;4.70;99.90;;;3.75;100.00;98704.47;4990297;28;20050;-69
2021/12/13 05:52:33;;;;;;;133.40;10.27;;;4.70;99.90;;;3.73;100.00;98704.44;5014831;28;20144;-68
2021/12/13 05:55:09;;;;;;;49.05;8.15;;;4.70;99.90;;;3.77;100.00;98710.47;5006955;28;20081;-69
2021/12/13 05:57:44;;;;;;;190.63;15.60;;;4.70;99.90;;;3.76;100.00;98714.75;5016325;28;20468;-68
2021/12/13 06:00:22;;;;;;;103.18;10.63;;;4.70;99.90;;;3.84;100.00;98716.47;5009801;28;20076;-69
2021/12/13 06:03:07;;;;;;;110.13;9.55;;;4.80;99.90;;;3.90;100.00;98713.91;5006739;28;20050;-69
2021/12/13 06:05:48;;;;;;;95.55;9.07;;;4.70;99.90;;;3.98;100.00;98707.09;5012841;28;20053;-68
2021/12/13 06:08:26;;;;;;;233.65;15.38;;;4.80;99.90;;;3.80;100.00;98714.75;5015466;28;20046;-69
2021/12/13 06:11:01;;;;;;;282.05;21.58;;;4.80;99.90;;;3.59;100.00;98721.53;5014526;28;20111;-69
2021/12/13 06:13:43;;;;;;;87.03;12.95;;;4.70;99.90;;;3.80;100.00;98719.88;5025377;28;20080;-69
2021/12/13 06:16:14;;;;;;;147.40;12.30;;;4.70;99.90;;;3.66;100.00;98718.13;5014304;28;20046;-69
2021/12/13 06:19:06;;;;;;;79.05;10.35;;;4.60;99.90;;;3.56;100.00;98724.09;5010997;28;20048;-68
2021/12/13 06:22:09;;;;;;;50.38;9.05;;;4.60;99.90;;;3.78;100.00;98725.84;5009055;28;20124;-69
2021/12/13 06:24:46;;;;;;;59.35;7.90;;;4.60;99.90;;;3.62;100.00;98730.94;5007630;28;20557;-68
2021/12/13 06:27:24;;;;;;;15.85;6.35;;;4.70;99.90;;;3.72;100.00;98730.16;5008574;28;20435;-68
2021/12/13 06:30:07;;;;;;;16.23;5.85;;;4.60;99.90;;;3.81;100.00;98730.19;5011632;28;20149;-68
2021/12/13 06:32:53;;;;;;;16.30;6.22;;;4.70;99.90;;;3.88;100.00;98728.47;5006608;28;20481;-69
2021/12/13 06:35:54;;;;;;;12.15;5.40;;;4.70;99.90;;;3.96;100.00;98732.75;5008934;28;20052;-69
2021/12/13 06:38:47;;;;;;;14.57;5.47;;;4.70;99.90;;;3.87;100.00;98732.75;5001224;28;20057;-69
2021/12/13 06:41:33;;;;;;;31.10;8.23;;;4.70;99.90;;;3.66;100.00;98732.69;5005393;28;20062;-68
2021/12/13 06:44:05;;;;;;;45.00;11.57;;;4.60;99.90;;;3.54;100.00;98734.34;5008885;28;20506;-68
2021/12/13 06:46:45;;;;;;;23.15;8.43;;;4.70;99.90;;;3.72;100.00;98735.28;5023162;28;20084;-68
2021/12/13 06:49:19;;;;;;;14.68;6.55;;;4.70;99.90;;;3.78;100.00;98732.72;5015576;28;20053;-68
2021/12/13 06:51:59;;;;;;;28.17;10.52;;;4.70;99.90;;;3.72;100.00;98743.00;5010735;28;20451;-68
2021/12/13 06:54:31;;;;;;;55.63;18.10;;;4.70;99.90;;;3.68;100.00;98738.69;5006700;28;20054;-68
2021/12/13 06:57:11;;;;;;;37.42;13.43;;;4.70;99.90;;;3.73;100.00;98732.69;5007656;28;20097;-66
2021/12/13 07:00:16;;;;;;;24.58;7.93;;;4.70;99.90;;;3.77;100.00;98734.44;5003891;28;20394;-68
2021/12/13 07:02:54;;;;;;;38.15;9.75;;;4.80;99.90;;;3.85;100.00;98731.03;5008873;28;20132;-69
2021/12/13 07:05:43;;;;;;;24.60;7.82;;;4.90;99.90;;;4.04;100.00;98735.38;5010247;28;20085;-68
2021/12/13 07:08:36;;;;;;;21.20;6.75;;;4.90;99.90;;;3.97;100.00;98734.50;5002012;28;20540;-68
2021/12/13 07:11:19;;;;;;;16.17;6.15;;;4.80;99.90;;;3.95;100.00;98735.34;5006895;28;20136;-68
2021/12/13 07:14:00;;;;;;;14.38;5.20;;;4.80;99.90;;;3.99;100.00;98737.03;5009110;28;20141;-68
2021/12/13 07:16:35;;;;;;;9.25;4.55;;;4.90;99.90;;;4.07;100.00;98742.22;5009147;28;20431;-69
2021/12/13 07:19:22;;;;;;;11.50;5.10;;;4.80;99.90;;;4.07;100.00;98742.22;5010399;28;20085;-68
2021/12/13 07:21:57;;;;;;;13.18;6.60;;;4.80;99.90;;;3.98;100.00;98735.34;5011194;28;20133;-68
2021/12/13 07:24:42;;;;;;;13.38;5.53;;;4.80;99.90;;;4.05;100.00;98731.94;5002018;28;20139;-69
2021/12/13 07:27:29;;;;;;;17.55;7.05;;;4.80;99.90;;;3.85;100.00;98749.00;5009101;28;20054;-68
2021/12/13 07:30:21;;;;;;;15.10;6.55;;;4.90;99.90;;;3.95;100.00;98753.34;5006286;28;20107;-68
2021/12/13 07:32:58;;;;;;;27.77;11.98;;;4.90;99.90;;;3.86;100.00;98750.72;5010228;28;20050;-68
2021/12/13 07:35:41;;;;;;;38.88;15.32;;;4.90;99.90;;;3.98;100.00;98750.75;5005928;28;20081;-69
2021/12/13 07:38:26;;;;;;;28.63;11.95;;;4.90;99.90;;;4.08;100.00;98746.50;5015172;28;20050;-68
2021/12/13 07:41:01;;;;;;;15.73;5.72;;;4.90;99.90;;;4.05;100.00;98749.91;5005605;28;20462;-68
2021/12/13 07:43:31;;;;;;;12.68;5.78;;;4.90;99.90;;;4.06;100.00;98749.06;5008301;28;20539;-68
2021/12/13 07:46:22;;;;;;;14.15;6.38;;;4.90;99.90;;;4.18;100.00;98748.25;5009968;28;20120;-68
2021/12/13 07:48:55;;;;;;;12.02;5.75;;;5.00;99.90;;;4.07;100.00;98747.38;5004209;28;20045;-66
2021/12/13 07:51:33;;;;;;;13.88;5.32;;;5.00;99.90;;;4.02;100.00;98757.63;5010280;28;20553;-68
2021/12/13 07:54:14;;;;;;;12.68;5.30;;;5.00;99.90;;;4.11;100.00;98752.50;5007556;28;20131;-68
2021/12/13 07:56:57;;;;;;;7.40;3.85;;;5.00;99.90;;;4.28;100.00;98757.66;5025990;28;20054;-69
2021/12/13 07:59:24;;;;;;;;;;;5.10;99.90;;;4.25;100.00;98759.38;5012237;28;20081;-68
2021/12/13 08:02:05;;;;;;;8.38;4.18;;;5.10;99.90;;;4.26;100.00;98758.53;5004170;28;19981;-68
2021/12/13 08:04:46;;;;;;;8.23;4.03;;;5.10;99.90;;;4.24;100.00;98761.06;5016249;28;20054;-68
2021/12/13 08:07:24;;;;;;;9.60;4.82;;;5.10;99.90;;;4.39;100.00;98768.81;5026706;28;20136;-67
2021/12/13 08:09:58;;;;;;;10.57;4.72;;;5.20;99.90;;;4.50;100.00;98763.69;5007933;28;20137;-67
2021/12/13 08:12:34;;;;;;;11.80;5.70;;;5.30;99.90;;;4.57;100.00;98762.84;5007992;28;20081;-68
2021/12/13 08:15:19;;;;;;;11.38;5.07;;;5.30;99.90;;;4.49;100.00;98763.69;5008104;28;20164;-68
2021/12/13 08:17:56;;;;;;;13.50;5.00;;;5.30;99.90;;;4.54;100.00;98767.16;5008249;28;20046;-68
2021/12/13 08:21:00;;;;;;;12.68;6.03;;;5.30;99.90;;;4.54;100.00;98768.00;5010150;28;20502;-68
2021/12/13 08:23:39;;;;;;;19.17;7.35;;;5.30;99.90;;;4.43;100.00;98767.13;5000128;28;20078;-68
2021/12/13 08:26:13;;;;;;;25.67;7.13;;;5.30;99.90;;;4.44;100.00;98758.53;5012569;28;20497;-67
2021/12/13 08:28:48;;;;;;;29.55;8.70;;;5.30;99.90;;;4.38;100.00;98766.28;5016483;28;20569;-69
2021/12/13 08:31:33;;;;;;;14.00;6.38;;;5.30;99.90;;;4.42;100.00;98755.09;5012550;28;20484;-68
2021/12/13 08:34:06;;;;;;;29.58;7.70;;;5.30;99.90;;;4.43;100.00;98753.41;5010280;28;20506;-67
2021/12/13 08:36:35;;;;;;;40.17;8.27;;;5.40;99.90;;;4.36;100.00;98752.56;5005143;28;20082;-68
2021/12/13 08:39:15;;;;;;;28.02;7.32;;;5.30;99.90;;;4.37;100.00;98757.69;4999404;28;20058;-68
2021/12/13 08:41:51;;;;;;;32.75;7.00;;;5.30;99.90;;;4.30;100.00;98762.81;5008951;28;20145;-68
2021/12/13 08:44:34;;;;;;;23.25;5.72;;;5.30;99.90;;;4.28;100.00;98757.66;5009925;28;20077;-69
2021/12/13 08:47:18;;;;;;;42.97;8.25;;;5.30;99.90;;;4.13;100.00;98763.66;5006690;28;20108;-68
2021/12/13 08:49:55;;;;;;;14.85;6.60;;;5.30;99.90;;;4.53;100.00;98768.84;5009608;28;20382;-68
2021/12/13 08:52:34;;;;;;;25.63;6.72;;;5.40;99.90;;;4.63;100.00;98766.25;5006053;28;20504;-68
2021/12/13 08:55:07;;;;;;;15.68;5.28;;;5.50;99.90;;;4.97;100.00;98775.72;5004634;28;20072;-69
2021/12/13 08:57:53;;;;;;;16.45;4.95;;;5.60;99.90;;;4.99;100.00;98771.38;5008442;28;20077;-69
2021/12/13 09:00:33;;;;;;;15.48;6.05;;;5.70;99.90;;;5.09;100.00;98764.53;5019969;28;20161;-68
2021/12/13 09:03:27;;;;;;;17.25;6.70;;;5.80;99.90;;;4.83;100.00;98767.13;5009650;28;20045;-68
2021/12/13 09:06:18;;;;;;;14.90;5.28;;;5.80;99.90;;;4.67;100.00;98768.84;4996786;28;20441;-68
2021/12/13 09:08:49;;;;;;;14.55;5.63;;;5.70;99.90;;;4.75;100.00;98769.72;4996835;28;20125;-68
2021/12/13 09:11:57;;;;;;;16.02;5.85;;;5.80;99.90;;;4.66;100.00;98772.28;5009396;28;20447;-69
2021/12/13 09:14:38;;;;;;;13.05;5.00;;;5.80;99.90;;;5.05;100.00;98761.97;5022637;28;20101;-67
2021/12/13 09:17:37;;;;;;;11.27;5.43;;;5.90;99.90;;;5.06;100.00;98764.53;5008935;28;20081;-68
2021/12/13 09:20:45;;;;;;;15.20;4.97;;;6.00;99.90;;;5.36;100.00;98767.88;5008066;28;20072;-68
2021/12/13 09:23:27;;;;;;;7.70;4.13;;;6.10;99.90;;;5.57;100.00;98779.88;4996253;28;20129;-68
2021/12/13 09:26:02;;;;;;;7.50;3.73;;;6.20;99.90;;;5.75;100.00;98769.50;5007904;28;20125;-68
2021/12/13 09:28:52;;;;;;;7.72;4.10;;;6.40;99.90;;;5.87;100.00;98776.31;5012805;28;20560;-68
2021/12/13 09:31:35;;;;;;;9.00;3.78;;;6.70;99.90;;;5.86;100.00;98774.59;5022853;28;20129;-68
2021/12/13 09:34:15;;;;;;;9.23;4.32;;;6.70;99.90;;;6.13;100.00;98777.94;5012028;28;20285;-68
2021/12/13 09:36:48;;;;;;;8.13;4.18;;;6.80;99.90;;;5.78;100.00;98778.94;5014773;28;20073;-67
2021/12/13 09:39:26;;;;;;;7.32;4.00;;;6.90;99.90;;;5.99;100.00;98781.44;5025070;28;20077;-68
2021/12/13 09:42:06;;;;;;;6.55;3.22;;;6.80;99.90;;;6.11;100.00;98772.78;5011451;28;20136;-68
2021/12/13 09:44:43;;;;;;;5.32;2.50;;;6.90;99.90;;;6.35;100.00;98779.53;5010304;28;20075;-69
2021/12/13 09:47:17;;;;;;;6.40;3.35;;;6.90;99.90;;;6.61;100.00;98778.47;5012266;28;20562;-68
2021/12/13 09:49:55;;;;;;;9.98;5.22;;;7.10;99.90;;;6.24;100.00;98778.72;5017098;28;20064;-69
2021/12/13 09:52:49;;;;;;;10.50;5.25;;;7.10;99.90;;;6.34;100.00;98776.94;5013386;28;20561;-68
2021/12/13 09:55:25;;;;;;;9.73;4.32;;;7.10;99.90;;;6.23;100.00;98771.88;5010888;28;20132;-67
2021/12/13 09:58:03;;;;;;;10.38;5.32;;;7.10;99.90;;;6.26;100.00;98775.28;5011870;28;20177;-69
2021/12/13 10:00:59;;;;;;;12.43;6.78;;;7.20;99.90;;;5.86;100.00;98782.31;5004950;28;20070;-68
2021/12/13 10:03:33;;;;;;;13.20;6.85;;;7.10;99.90;;;6.04;100.00;98763.38;5014484;28;20048;-67
2021/12/13 10:06:06;;;;;;;13.57;7.25;;;7.10;99.90;;;6.27;100.00;98765.81;5012343;28;20497;-70
2021/12/13 10:08:46;;;;;;;14.55;7.05;;;7.10;99.90;;;6.48;100.00;98763.09;5018259;28;20128;-68
2021/12/13 10:11:21;;;;;;;13.45;7.22;;;7.20;99.90;;;6.74;100.00;98762.03;5011605;28;20061;-69
2021/12/13 10:13:50;;;;;;;15.13;7.40;;;7.30;99.90;;;6.59;100.00;98763.03;5009311;28;20045;-67
2021/12/13 10:16:28;;;;;;;9.93;5.30;;;;;;;6.78;100.00;98756.00;5006540;28;20105;-68
2021/12/13 10:18:57;;;;;;;16.85;9.13;;;;;;;6.38;100.00;98763.16;5004025;28;20100;-68
2021/12/13 10:21:31;;;;;;;12.55;7.35;;;;;;;6.57;100.00;98757.03;5011196;28;20049;-68
2021/12/13 10:24:13;;;;;;;13.82;8.18;;;;;;;6.60;100.00;98764.72;5013600;28;20046;-69
2021/12/13 10:26:43;;;;;;;11.57;6.53;;;;;;;6.23;100.00;98766.72;5009319;28;20054;-69
2021/12/13 10:29:31;;;;;;;11.95;6.15;;;;;;;6.47;100.00;98763.94;5023319;28;20521;-68
2021/12/13 10:32:12;;;;;;;17.15;7.53;;;;;;;6.13;100.00;98759.88;5011234;28;20104;-68
2021/12/13 10:34:47;;;;;;;20.63;9.52;;;7.90;99.90;;;6.01;100.00;98766.81;5011212;28;20050;-68
2021/12/13 10:37:26;;;;;;;16.98;8.75;;;7.80;99.90;;;5.85;100.00;98768.56;5011852;28;20049;-69
2021/12/13 10:40:00;;;;;;;21.30;11.95;;;;;;;5.99;100.00;98768.53;5011204;28;20050;-68
2021/12/13 10:42:34;;;;;;;18.27;10.50;;;;;;;6.17;100.00;98766.75;5011450;28;20104;-69
2021/12/13 10:45:08;;;;;;;24.33;11.02;;;7.60;99.90;;;6.21;100.00;98764.13;5005390;28;20133;-68
2021/12/13 10:47:49;;;;;;;21.52;11.80;;;7.60;99.90;;;6.25;100.00;98765.84;5007492;28;20053;-68
2021/12/13 10:50:36;;;;;;;15.32;8.80;;;7.50;99.90;;;6.40;100.00;98766.59;5010978;28;20137;-68
2021/12/13 10:53:09;;;;;;;20.13;11.23;;;7.70;99.90;;;6.42;100.00;98757.97;5027132;28;20129;-68
2021/12/13 10:55:46;;;;;;;21.90;10.82;;;7.70;99.90;;;6.45;100.00;98755.41;5006006;28;20081;-68
2021/12/13 10:58:21;;;;;;;21.23;10.25;;;7.60;99.90;;;6.54;100.00;98749.28;4995365;28;20153;-69
2021/12/13 11:01:03;;;;;;;23.52;12.25;;;;;;;6.10;100.00;98755.59;5006586;28;20464;-68
2021/12/13 11:03:32;;;;;;;17.98;10.18;;;7.50;99.90;;;6.26;100.00;98753.78;5005095;28;20057;-68
2021/12/13 11:06:00;;;;;;;16.92;11.00;;;7.70;99.90;;;6.64;100.00;98752.69;5011105;28;20526;-69
2021/12/13 11:08:28;;;;;;;32.67;19.20;;;7.80;99.90;;;6.52;100.00;98755.31;5009785;28;20042;-69
2021/12/13 11:11:08;;;;;;;20.40;11.63;;;7.80;99.90;;;6.83;100.00;98746.47;5008384;28;20454;-68
2021/12/13 11:13:38;;;;;;;21.17;12.18;;;7.80;99.90;;;7.11;100.00;98741.03;5010677;28;20129;-69
2021/12/13 11:16:17;;;;;;;17.10;10.77;;;7.90;99.90;;;7.32;100.00;98730.50;5007123;28;20128;-68